createdAt,value
2018-05-01T00:00:41.961Z,1.60
2018-05-01T00:03:10.046Z,2.80
2018-05-01T00:05:38.169Z,2.00
2018-05-01T00:08:06.289Z,1.67
2018-05-01T00:10:34.405Z,1.40
2018-05-01T00:13:02.517Z,1.10
2018-05-01T00:15:30.651Z,1.17
2018-05-01T00:17:58.731Z,0.90
2018-05-01T00:20:26.845Z,0.87
2018-05-01T00:22:54.946Z,0.90
2018-05-01T00:25:23.054Z,0.80
2018-05-01T00:27:51.161Z,0.83
2018-05-01T00:30:19.476Z,1.23
2018-05-01T00:32:47.572Z,1.00
2018-05-01T00:35:15.700Z,1.07
2018-05-01T00:37:43.791Z,0.67
2018-05-01T00:40:11.882Z,1.30
2018-05-01T00:42:40.006Z,1.17
2018-05-01T00:45:08.382Z,1.23
2018-05-01T00:47:36.744Z,1.10
2018-05-01T00:50:04.879Z,0.80
2018-05-01T00:52:44.869Z,0.60
2018-05-01T00:55:12.977Z,1.20
2018-05-01T00:57:41.077Z,1.20
2018-05-01T01:00:09.201Z,0.80
2018-05-01T01:02:37.300Z,0.90
2018-05-01T01:05:05.394Z,0.80
2018-05-01T01:07:33.508Z,1.00
2018-05-01T01:10:01.613Z,1.43
2018-05-01T01:12:29.721Z,1.10
2018-05-01T01:14:57.837Z,0.90
2018-05-01T01:17:25.939Z,1.20
2018-05-01T01:19:54.049Z,1.20
2018-05-01T01:22:22.182Z,0.93
2018-05-01T01:24:50.293Z,1.40
2018-05-01T01:27:18.412Z,2.00
2018-05-01T01:29:46.528Z,1.63
2018-05-01T01:32:14.640Z,1.40
2018-05-01T01:34:42.770Z,1.50
2018-05-01T01:37:10.367Z,1.27
2018-05-01T01:39:37.955Z,1.30
2018-05-01T01:42:05.502Z,1.50
2018-05-01T01:44:33.173Z,1.37
2018-05-01T01:47:00.662Z,1.83
2018-05-01T01:49:28.255Z,1.60
2018-05-01T01:51:56.322Z,1.67
2018-05-01T01:54:23.890Z,1.53
2018-05-01T01:56:51.471Z,1.57
2018-05-01T01:59:19.139Z,1.30
2018-05-01T02:01:46.869Z,1.43
2018-05-01T02:04:14.436Z,1.50
2018-05-01T02:06:42.033Z,1.60
2018-05-01T02:09:09.609Z,2.20
2018-05-01T02:11:37.187Z,1.80
2018-05-01T02:14:05.003Z,1.60
2018-05-01T02:16:32.584Z,2.77
2018-05-01T02:19:00.149Z,2.80
2018-05-01T02:21:27.733Z,2.40
2018-05-01T02:23:55.305Z,3.50
2018-05-01T02:26:22.874Z,4.10
2018-05-01T02:28:50.489Z,3.60
2018-05-01T02:31:18.049Z,3.67
2018-05-01T02:33:45.629Z,3.57
2018-05-01T02:36:13.205Z,4.13
2018-05-01T02:38:40.788Z,4.23
2018-05-01T02:41:08.384Z,4.00
2018-05-01T02:43:35.966Z,3.20
2018-05-01T02:46:03.539Z,4.20
2018-05-01T02:48:31.109Z,4.20
2018-05-01T02:50:58.693Z,4.40
2018-05-01T02:53:26.247Z,4.13
2018-05-01T02:55:53.802Z,4.60
2018-05-01T02:58:21.394Z,3.70
2018-05-01T03:00:48.967Z,4.77
2018-05-01T03:03:16.515Z,5.23
2018-05-01T03:05:44.081Z,4.90
2018-05-01T03:08:11.661Z,4.93
2018-05-01T03:10:39.237Z,6.53
2018-05-01T03:13:06.829Z,6.00
2018-05-01T03:15:34.393Z,5.70
2018-05-01T03:18:01.972Z,6.33
2018-05-01T03:20:29.534Z,4.93
2018-05-01T03:22:57.131Z,5.27
2018-05-01T03:25:24.751Z,5.73
2018-05-01T03:27:52.287Z,5.87
2018-05-01T03:30:19.862Z,5.87
2018-05-01T03:32:47.452Z,5.20
2018-05-01T03:35:15.018Z,4.67
2018-05-01T03:37:42.595Z,5.27
2018-05-01T03:40:10.147Z,5.50
2018-05-01T03:42:37.737Z,4.33
2018-05-01T03:45:05.295Z,4.90
2018-05-01T03:47:32.851Z,4.43
2018-05-01T03:50:00.440Z,3.73
2018-05-01T03:52:28.002Z,3.40
2018-05-01T03:54:55.582Z,3.30
2018-05-01T03:57:23.160Z,3.83
2018-05-01T03:59:50.753Z,3.20
2018-05-01T04:02:18.754Z,3.50
2018-05-01T04:04:46.291Z,3.43
2018-05-01T04:07:13.865Z,3.60
2018-05-01T04:09:41.426Z,3.67
2018-05-01T04:12:09.191Z,3.90
2018-05-01T04:14:36.743Z,3.80
2018-05-01T04:17:04.321Z,4.30
2018-05-01T04:19:31.906Z,5.40
2018-05-01T04:21:59.473Z,6.10
2018-05-01T04:24:27.027Z,7.07
2018-05-01T04:26:54.630Z,8.17
2018-05-01T04:29:22.214Z,6.93
2018-05-01T04:31:49.833Z,7.73
2018-05-01T04:34:17.442Z,8.23
2018-05-01T04:36:47.011Z,8.57
2018-05-01T04:39:14.605Z,9.20
2018-05-01T04:41:42.207Z,8.23
2018-05-01T04:44:09.790Z,9.07
2018-05-01T04:46:37.395Z,9.00
2018-05-01T04:49:04.983Z,9.23
2018-05-01T04:51:32.617Z,9.30
2018-05-01T04:54:00.207Z,10.30
2018-05-01T04:56:27.858Z,10.53
2018-05-01T04:58:55.464Z,10.73
2018-05-01T05:01:23.085Z,10.73
2018-05-01T05:03:50.650Z,11.67
2018-05-01T05:06:18.273Z,11.43
2018-05-01T05:08:46.028Z,12.63
2018-05-01T05:11:13.640Z,11.30
2018-05-01T05:13:41.232Z,10.50
2018-05-01T05:16:08.853Z,10.83
2018-05-01T05:18:36.465Z,10.43
2018-05-01T05:21:04.092Z,10.30
2018-05-01T05:23:31.669Z,10.33
2018-05-01T05:25:59.306Z,10.07
2018-05-01T05:28:26.884Z,10.00
2018-05-01T05:30:54.494Z,9.57
2018-05-01T05:33:22.064Z,8.23
2018-05-01T05:35:49.689Z,7.77
2018-05-01T05:38:17.261Z,8.53
2018-05-01T05:40:46.709Z,8.50
2018-05-01T05:43:14.285Z,8.20
2018-05-01T05:45:41.868Z,8.80
2018-05-01T05:48:09.504Z,8.77
2018-05-01T05:50:37.113Z,7.90
2018-05-01T05:53:04.694Z,7.13
2018-05-01T05:55:32.309Z,7.23
2018-05-01T05:57:59.887Z,7.50
2018-05-01T06:00:27.453Z,7.20
2018-05-01T06:02:55.077Z,7.07
2018-05-01T06:05:22.642Z,7.97
2018-05-01T06:07:50.370Z,8.20
2018-05-01T06:10:17.864Z,7.80
2018-05-01T06:12:45.467Z,6.73
2018-05-01T06:15:13.064Z,7.60
2018-05-01T06:17:40.641Z,7.37
2018-05-01T06:20:08.226Z,7.87
2018-05-01T06:22:36.667Z,7.80
2018-05-01T06:25:04.242Z,7.87
2018-05-01T06:27:31.840Z,7.30
2018-05-01T06:29:59.470Z,7.60
2018-05-01T06:32:27.040Z,8.23
2018-05-01T06:34:54.636Z,7.80
2018-05-01T06:37:22.219Z,7.20
2018-05-01T06:39:49.801Z,7.77
2018-05-01T06:42:17.363Z,6.57
2018-05-01T06:44:44.937Z,7.20
2018-05-01T06:47:12.535Z,7.17
2018-05-01T06:49:41.149Z,7.23
2018-05-01T06:52:08.768Z,7.67
2018-05-01T06:54:36.350Z,7.27
2018-05-01T06:57:03.956Z,7.30
2018-05-01T06:59:31.520Z,7.43
2018-05-01T07:01:59.107Z,7.27
2018-05-01T07:04:26.785Z,7.30
2018-05-01T07:06:54.296Z,7.50
2018-05-01T07:09:21.859Z,7.70
2018-05-01T07:11:49.476Z,6.57
2018-05-01T07:14:17.041Z,7.17
2018-05-01T07:16:44.614Z,7.03
2018-05-01T07:19:12.184Z,5.90
2018-05-01T07:21:39.760Z,6.37
2018-05-01T07:24:07.333Z,6.10
2018-05-01T07:26:34.932Z,5.90
2018-05-01T07:29:02.501Z,5.67
2018-05-01T07:31:30.078Z,6.33
2018-05-01T07:33:57.672Z,5.93
2018-05-01T07:36:26.262Z,6.23
2018-05-01T07:38:53.819Z,6.03
2018-05-01T07:41:21.582Z,5.97
2018-05-01T07:43:49.181Z,5.47
2018-05-01T07:46:16.750Z,6.00
2018-05-01T07:48:44.324Z,5.67
2018-05-01T07:51:11.919Z,5.40
2018-05-01T07:53:39.488Z,4.67
2018-05-01T07:56:07.082Z,5.60
2018-05-01T07:58:34.638Z,5.67
2018-05-01T08:01:02.208Z,4.73
2018-05-01T08:03:29.787Z,5.63
2018-05-01T08:05:57.363Z,5.23
2018-05-01T08:08:24.941Z,5.07
2018-05-01T08:10:52.555Z,5.13
2018-05-01T08:13:20.136Z,4.67
2018-05-01T08:15:47.703Z,3.90
2018-05-01T08:18:15.280Z,4.70
2018-05-01T08:20:42.852Z,4.87
2018-05-01T08:23:10.429Z,4.30
2018-05-01T08:25:38.433Z,4.50
2018-05-01T08:28:06.004Z,4.80
2018-05-01T08:30:33.618Z,4.70
2018-05-01T08:33:01.193Z,4.73
2018-05-01T08:35:28.796Z,4.60
2018-05-01T08:37:56.365Z,4.70
2018-05-01T08:40:24.012Z,5.07
2018-05-01T08:42:55.138Z,4.77
2018-05-01T08:45:22.721Z,4.50
2018-05-01T08:47:50.275Z,4.80
2018-05-01T08:50:17.854Z,4.60
2018-05-01T08:52:45.459Z,5.00
2018-05-01T08:55:13.030Z,4.90
2018-05-01T08:57:40.648Z,5.37
2018-05-01T09:00:08.508Z,4.73
2018-05-01T09:02:36.069Z,4.80
2018-05-01T09:05:03.692Z,4.70
2018-05-01T09:07:31.284Z,4.47
2018-05-01T09:10:02.390Z,5.80
2018-05-01T09:12:29.964Z,4.60
2018-05-01T09:14:57.568Z,4.73
2018-05-01T09:17:25.160Z,5.10
2018-05-01T09:19:52.718Z,5.20
2018-05-01T09:22:20.295Z,4.90
2018-05-01T09:24:50.758Z,5.00
2018-05-01T09:27:18.358Z,5.50
2018-05-01T09:29:45.951Z,5.53
2018-05-01T09:32:13.534Z,5.13
2018-05-01T09:34:41.090Z,4.73
2018-05-01T09:37:08.685Z,4.47
2018-05-01T09:39:36.282Z,5.40
2018-05-01T09:42:03.854Z,5.23
2018-05-01T09:44:31.472Z,5.93
2018-05-01T09:46:59.039Z,4.70
2018-05-01T09:49:26.600Z,5.10
2018-05-01T09:51:55.229Z,5.80
2018-05-01T09:54:23.367Z,5.40
2018-05-01T09:56:51.463Z,5.47
2018-05-01T09:59:20.027Z,5.20
2018-05-01T10:01:48.206Z,5.03
2018-05-01T10:04:16.231Z,4.77
2018-05-01T10:06:47.348Z,4.93
2018-05-01T10:09:15.527Z,5.50
2018-05-01T10:11:43.645Z,5.60
2018-05-01T10:14:11.777Z,5.90
2018-05-01T10:16:39.923Z,5.40
2018-05-01T10:19:08.061Z,5.10
2018-05-01T10:21:36.185Z,5.23
2018-05-01T10:24:04.316Z,4.67
2018-05-01T10:26:32.426Z,4.60
2018-05-01T10:29:00.572Z,4.67
2018-05-01T10:31:28.902Z,4.93
2018-05-01T10:33:57.088Z,4.50
2018-05-01T10:36:25.222Z,4.30
2018-05-01T10:38:53.391Z,4.00
2018-05-01T10:41:21.445Z,4.70
2018-05-01T10:43:49.751Z,4.03
2018-05-01T10:46:17.868Z,4.60
2018-05-01T10:48:45.976Z,4.57
2018-05-01T10:51:14.114Z,4.50
2018-05-01T10:53:42.233Z,4.60
2018-05-01T10:56:10.354Z,4.27
2018-05-01T10:58:38.497Z,4.07
2018-05-01T11:01:06.595Z,4.17
2018-05-01T11:03:35.089Z,3.93
2018-05-01T11:06:03.467Z,3.70
2018-05-01T11:08:31.640Z,3.63
2018-05-01T11:11:02.692Z,3.90
2018-05-01T11:13:30.828Z,4.30
2018-05-01T11:15:58.954Z,4.17
2018-05-01T11:18:27.065Z,4.13
2018-05-01T11:20:55.220Z,4.23
2018-05-01T11:23:23.333Z,4.07
2018-05-01T11:25:51.449Z,4.17
2018-05-01T11:28:19.597Z,4.30
2018-05-01T11:30:47.699Z,4.23
2018-05-01T11:33:15.840Z,3.70
2018-05-01T11:35:43.962Z,4.10
2018-05-01T11:38:12.077Z,3.37
2018-05-01T11:40:40.202Z,3.90
2018-05-01T11:43:08.323Z,3.80
2018-05-01T11:45:36.430Z,3.80
2018-05-01T11:48:04.553Z,4.97
2018-05-01T11:50:32.673Z,3.93
2018-05-01T11:53:00.803Z,3.90
2018-05-01T11:55:29.095Z,3.80
2018-05-01T11:57:57.231Z,3.20
2018-05-01T12:00:25.360Z,3.10
2018-05-01T12:02:53.491Z,3.20
2018-05-01T12:05:21.657Z,3.30
2018-05-01T12:07:49.769Z,3.67
2018-05-01T12:10:17.893Z,3.20
2018-05-01T12:12:46.050Z,2.77
2018-05-01T12:15:14.143Z,2.90
2018-05-01T12:17:42.282Z,2.80
2018-05-01T12:20:10.390Z,3.13
2018-05-01T12:22:38.514Z,2.67
2018-05-01T12:25:06.648Z,2.50
2018-05-01T12:27:35.514Z,2.73
2018-05-01T12:30:03.703Z,3.00
2018-05-01T12:32:31.756Z,3.00
2018-05-01T12:34:59.900Z,3.00
2018-05-01T12:37:27.996Z,3.63
2018-05-01T12:39:56.131Z,3.40
2018-05-01T12:42:24.331Z,2.83
2018-05-01T12:44:52.373Z,3.60
2018-05-01T12:47:20.495Z,4.00
2018-05-01T12:49:48.633Z,4.07
2018-05-01T12:52:19.747Z,3.60
2018-05-01T12:54:47.887Z,4.03
2018-05-01T12:57:16.047Z,4.40
2018-05-01T12:59:44.143Z,3.87
2018-05-01T13:02:12.268Z,4.33
2018-05-01T13:04:41.016Z,3.53
2018-05-01T13:07:09.152Z,3.47
2018-05-01T13:09:37.282Z,3.40
2018-05-01T13:12:05.614Z,4.33
2018-05-01T13:14:33.744Z,4.20
2018-05-01T13:17:01.863Z,4.10
2018-05-01T13:19:30.000Z,4.23
2018-05-01T13:21:58.107Z,3.70
2018-05-01T13:24:26.247Z,3.20
2018-05-01T13:26:54.373Z,4.30
2018-05-01T13:29:22.497Z,3.73
2018-05-01T13:31:50.613Z,3.30
2018-05-01T13:34:21.673Z,3.30
2018-05-01T13:36:49.781Z,2.43
2018-05-01T13:39:19.892Z,2.60
2018-05-01T13:41:48.007Z,2.50
2018-05-01T13:44:16.137Z,2.60
2018-05-01T13:46:44.246Z,2.57
2018-05-01T13:49:12.386Z,3.27
2018-05-01T13:51:40.516Z,2.97
2018-05-01T13:54:08.631Z,3.00
2018-05-01T13:56:36.768Z,2.43
2018-05-01T13:59:04.876Z,2.73
2018-05-01T14:01:32.981Z,3.23
2018-05-01T14:04:01.281Z,2.80
2018-05-01T14:06:29.414Z,2.30
2018-05-01T14:08:57.520Z,3.00
2018-05-01T14:11:25.656Z,2.60
2018-05-01T14:13:53.775Z,3.37
2018-05-01T14:16:21.902Z,3.00
2018-05-01T14:18:50.007Z,3.73
2018-05-01T14:21:18.124Z,2.77
2018-05-01T14:23:46.255Z,2.80
2018-05-01T14:26:14.380Z,3.53
2018-05-01T14:28:42.493Z,3.00
2018-05-01T14:31:10.608Z,2.70
2018-05-01T14:33:38.737Z,2.10
2018-05-01T14:36:06.884Z,2.50
2018-05-01T14:38:34.998Z,2.60
2018-05-01T14:41:03.137Z,2.70
2018-05-01T14:43:31.267Z,2.33
2018-05-01T14:45:59.363Z,2.63
2018-05-01T14:48:27.497Z,2.70
2018-05-01T14:50:55.611Z,2.60
2018-05-01T14:53:23.720Z,2.57
2018-05-01T14:55:51.848Z,2.60
2018-05-01T14:58:19.948Z,2.87
2018-05-01T15:00:48.062Z,2.27
2018-05-01T15:03:16.171Z,2.40
2018-05-01T15:05:44.290Z,2.30
2018-05-01T15:08:12.386Z,2.47
2018-05-01T15:10:40.517Z,2.83
2018-05-01T15:13:08.632Z,2.40
2018-05-01T15:15:36.757Z,2.50
2018-05-01T15:18:04.879Z,2.17
2018-05-01T15:20:33.016Z,2.73
2018-05-01T15:23:01.192Z,2.53
2018-05-01T15:25:29.476Z,2.40
2018-05-01T15:27:57.546Z,2.47
2018-05-01T15:30:25.813Z,2.50
2018-05-01T15:32:53.890Z,2.37
2018-05-01T15:35:22.058Z,3.27
2018-05-01T15:37:50.232Z,2.37
2018-05-01T15:40:18.358Z,2.87
2018-05-01T15:42:46.487Z,2.67
2018-05-01T15:45:14.700Z,2.77
2018-05-01T15:47:42.755Z,2.13
2018-05-01T15:50:10.869Z,2.67
2018-05-01T15:52:39.033Z,2.80
2018-05-01T15:55:07.156Z,2.80
2018-05-01T15:57:35.273Z,2.30
2018-05-01T16:00:03.542Z,2.33
2018-05-01T16:02:31.718Z,2.07
2018-05-01T16:04:59.922Z,2.90
2018-05-01T16:07:28.124Z,2.87
2018-05-01T16:09:56.245Z,2.53
2018-05-01T16:12:24.384Z,2.30
2018-05-01T16:14:52.467Z,2.93
2018-05-01T16:17:20.613Z,2.90
2018-05-01T16:19:48.733Z,2.23
2018-05-01T16:22:16.824Z,2.23
2018-05-01T16:24:44.953Z,2.80
2018-05-01T16:27:13.086Z,2.37
2018-05-01T16:29:41.228Z,2.40
2018-05-01T16:32:09.360Z,2.37
2018-05-01T16:34:37.465Z,2.30
2018-05-01T16:37:05.582Z,2.03
2018-05-01T16:39:33.714Z,2.10
2018-05-01T16:42:01.903Z,2.53
2018-05-01T16:44:30.033Z,2.10
2018-05-01T16:46:58.140Z,2.17
2018-05-01T16:49:26.272Z,2.00
2018-05-01T16:51:54.401Z,2.60
2018-05-01T16:54:22.518Z,2.43
2018-05-01T16:56:50.678Z,2.27
2018-05-01T16:59:18.921Z,2.40
2018-05-01T17:01:47.038Z,2.43
2018-05-01T17:04:15.143Z,2.10
2018-05-01T17:06:43.281Z,2.33
2018-05-01T17:09:11.413Z,2.50
2018-05-01T17:11:39.591Z,2.00
2018-05-01T17:14:07.903Z,1.97
2018-05-01T17:16:36.024Z,2.00
2018-05-01T17:19:04.155Z,2.40
2018-05-01T17:21:32.281Z,2.60
2018-05-01T17:24:00.406Z,2.67
2018-05-01T17:26:28.529Z,2.40
2018-05-01T17:28:56.657Z,2.63
2018-05-01T17:31:24.784Z,2.43
2018-05-01T17:33:52.936Z,2.30
2018-05-01T17:36:21.089Z,2.40
2018-05-01T17:38:49.198Z,2.43
2018-05-01T17:41:17.437Z,2.23
2018-05-01T17:43:45.590Z,2.47
2018-05-01T17:46:13.685Z,2.00
2018-05-01T17:48:41.806Z,2.40
2018-05-01T17:51:09.956Z,2.20
2018-05-01T17:53:38.083Z,2.60
2018-05-01T17:56:06.202Z,2.40
2018-05-01T17:58:34.347Z,2.33
2018-05-01T18:01:02.477Z,2.73
2018-05-01T18:03:30.595Z,2.60
2018-05-01T18:05:58.715Z,2.50
2018-05-01T18:08:26.847Z,2.40
2018-05-01T18:10:54.950Z,2.53
2018-05-01T18:13:23.078Z,3.20
2018-05-01T18:15:51.183Z,2.43
2018-05-01T18:18:19.305Z,2.77
2018-05-01T18:20:47.433Z,2.93
2018-05-01T18:23:15.601Z,2.60
2018-05-01T18:25:43.687Z,2.40
2018-05-01T18:28:11.836Z,2.40
2018-05-01T18:30:39.967Z,2.53
2018-05-01T18:33:08.075Z,2.73
2018-05-01T18:35:36.221Z,2.63
2018-05-01T18:38:04.333Z,3.20
2018-05-01T18:40:32.453Z,3.00
2018-05-01T18:43:00.585Z,3.23
2018-05-01T18:45:28.701Z,3.23
2018-05-01T18:47:56.825Z,3.20
2018-05-01T18:50:30.179Z,3.53
2018-05-01T18:52:53.396Z,3.40
2018-05-01T18:55:21.515Z,3.40
2018-05-01T18:57:49.664Z,3.13
2018-05-01T19:00:17.770Z,3.23
2018-05-01T19:02:49.620Z,3.57
2018-05-01T19:05:17.758Z,3.00
2018-05-01T19:07:45.894Z,3.10
2018-05-01T19:10:13.992Z,3.77
2018-05-01T19:12:42.114Z,3.50
2018-05-01T19:15:10.218Z,3.27
2018-05-01T19:17:38.342Z,3.63
2018-05-01T19:20:06.469Z,2.93
2018-05-01T19:22:34.596Z,3.20
2018-05-01T19:25:02.722Z,3.10
2018-05-01T19:27:31.072Z,2.83
2018-05-01T19:29:59.204Z,2.70
2018-05-01T19:32:27.336Z,2.90
2018-05-01T19:34:55.465Z,3.10
2018-05-01T19:37:23.585Z,3.13
2018-05-01T19:39:51.712Z,2.80
2018-05-01T19:42:19.855Z,3.07
2018-05-01T19:44:47.970Z,2.93
2018-05-01T19:47:16.104Z,3.30
2018-05-01T19:49:44.216Z,3.10
2018-05-01T19:52:13.582Z,3.20
2018-05-01T19:54:41.676Z,3.20
2018-05-01T19:57:09.817Z,3.10
2018-05-01T19:59:37.921Z,2.90
2018-05-01T20:02:06.059Z,3.13
2018-05-01T20:04:34.170Z,3.20
2018-05-01T20:07:02.301Z,3.40
2018-05-01T20:09:30.421Z,3.17
2018-05-01T20:11:58.534Z,3.20
2018-05-01T20:14:27.112Z,3.20
2018-05-01T20:16:55.237Z,3.20
2018-05-01T20:19:23.357Z,3.33
2018-05-01T20:21:51.492Z,3.17
2018-05-01T20:24:19.617Z,3.47
2018-05-01T20:26:47.731Z,3.47
2018-05-01T20:29:15.877Z,3.63
2018-05-01T20:31:44.012Z,3.40
2018-05-01T20:34:12.139Z,3.63
2018-05-01T20:36:40.275Z,3.33
2018-05-01T20:39:08.389Z,3.43
2018-05-01T20:41:36.659Z,3.70
2018-05-01T20:44:04.831Z,3.43
2018-05-01T20:46:40.193Z,3.50
2018-05-01T20:49:08.371Z,3.90
2018-05-01T20:51:36.481Z,3.87
2018-05-01T20:54:04.626Z,4.00
2018-05-01T20:56:32.737Z,3.47
2018-05-01T20:59:00.835Z,4.00
2018-05-01T21:01:28.980Z,3.63
2018-05-01T21:03:57.114Z,3.20
2018-05-01T21:06:25.223Z,3.20
2018-05-01T21:08:54.318Z,3.50
2018-05-01T21:11:22.444Z,2.97
2018-05-01T21:13:50.571Z,3.20
2018-05-01T21:16:18.693Z,3.33
2018-05-01T21:18:46.824Z,2.97
2018-05-01T21:21:15.262Z,3.33
2018-05-01T21:23:43.385Z,3.43
2018-05-01T21:26:11.512Z,3.13
2018-05-01T21:28:39.631Z,3.47
2018-05-01T21:31:07.753Z,3.80
2018-05-01T21:33:35.865Z,3.50
2018-05-01T21:36:03.978Z,3.80
2018-05-01T21:38:32.095Z,3.77
2018-05-01T21:41:00.212Z,3.50
2018-05-01T21:43:28.343Z,3.63
2018-05-01T21:45:56.478Z,4.10
2018-05-01T21:48:24.578Z,3.90
2018-05-01T21:50:52.719Z,3.80
2018-05-01T21:53:20.845Z,4.00
2018-05-01T21:55:48.942Z,4.10
2018-05-01T21:58:17.069Z,3.90
2018-05-01T22:00:45.215Z,3.97
2018-05-01T22:03:13.344Z,3.60
2018-05-01T22:05:41.476Z,3.77
2018-05-01T22:08:09.625Z,3.80
2018-05-01T22:10:37.722Z,4.20
2018-05-01T22:13:05.854Z,4.10
2018-05-01T22:15:34.147Z,4.00
2018-05-01T22:18:02.260Z,3.83
2018-05-01T22:20:30.379Z,3.80
2018-05-01T22:22:58.524Z,4.50
2018-05-01T22:25:26.618Z,4.03
2018-05-01T22:27:54.737Z,4.27
2018-05-01T22:30:23.118Z,3.80
2018-05-01T22:32:52.115Z,4.10
2018-05-01T22:35:20.255Z,3.97
2018-05-01T22:37:48.389Z,4.63
2018-05-01T22:40:16.532Z,4.23
2018-05-01T22:42:44.663Z,4.20
2018-05-01T22:45:12.816Z,4.67
2018-05-01T22:47:40.921Z,3.97
2018-05-01T22:50:09.016Z,4.70
2018-05-01T22:52:37.134Z,4.40
2018-05-01T22:55:05.245Z,3.90
2018-05-01T22:57:33.379Z,4.07
2018-05-01T23:00:01.512Z,4.67
2018-05-01T23:02:29.639Z,4.70
2018-05-01T23:04:57.759Z,4.13
2018-05-01T23:07:25.914Z,4.30
2018-05-01T23:09:54.042Z,4.03
2018-05-01T23:12:22.165Z,4.50
2018-05-01T23:14:50.423Z,4.13
2018-05-01T23:17:18.521Z,4.50
2018-05-01T23:19:46.640Z,4.43
2018-05-01T23:22:14.785Z,4.73
2018-05-01T23:24:42.921Z,4.47
2018-05-01T23:27:11.022Z,4.23
2018-05-01T23:29:39.149Z,4.13
2018-05-01T23:32:07.254Z,4.77
2018-05-01T23:34:35.383Z,4.90
2018-05-01T23:37:03.514Z,4.80
2018-05-01T23:39:31.627Z,4.70
2018-05-01T23:41:59.759Z,4.53
2018-05-01T23:44:27.880Z,4.60
2018-05-01T23:46:56.011Z,4.73
2018-05-01T23:49:24.132Z,4.67
2018-05-01T23:51:52.265Z,4.63
2018-05-01T23:54:20.390Z,5.53
2018-05-01T23:56:48.490Z,4.97
2018-05-01T23:59:16.746Z,5.63
